Assumption, Nebraska
Current Conditions -  °F | °C
As of 5:53 PM on Wednesday 28 Jan 2015 (Local Time) from KHSI Reporting Station
Clear Clear  
Wind Chill: 58°   Ceiling: Unl
Heat Index: 58°   Visibility: 10mi
Dew Point: 30°   Wind: 15mph
Humidity: 35%   Direction: 310°NW
Pressure: 29.79"   Gusts: NA
Location:  40.5679°N, 98.5535°W
Report Text: KHSI 282353Z AUTO 31013KT 10SM CLR 14/M01 A2979 RMK AO2 SLP097 T01441011 10206 20144 $
Loading
Personal Weather Stations






























Interactive Weather Map New forecast layout! Learn more

10-Day Weather Forecast

Advertisements
Track Severe Weather on mobile